Kihei, Hawaii
Current Conditions -  °F | °C
As of 10:54 PM on Friday 24 Oct 2014 (Local Time) from PHOG Reporting Station
Clear Clear  
Wind Chill: 77°   Ceiling: Unl
Heat Index: 79°   Visibility: 10mi
Dew Point: 70°   Wind: 14mph
Humidity: 79%   Direction: 40°NE
Pressure: 30.04"   Gusts: NA
Location:  20.78°N, 156.46°W
Report Text: PHOG 250854Z 04012KT 10SM CLR 25/21 A3004 RMK AO2 SLP178 T02500211 50000 $
Loading
Personal Weather Stations






























Interactive Weather Map
Tropical Storm Tracking
New forecast layout! Learn more

10-Day Weather Forecast

Advertisements
Track Severe Weather on mobile